createdAt,value
2023-02-15T00:00:03.264Z,31.07
2023-02-15T00:02:35.942Z,36.20
2023-02-15T00:05:07.612Z,34.35
2023-02-15T00:07:39.867Z,36.85
2023-02-15T00:10:12.638Z,29.15
2023-02-15T00:12:43.168Z,39.63
2023-02-15T00:15:14.256Z,37.80
2023-02-15T00:17:44.922Z,35.45
2023-02-15T00:20:18.363Z,31.02
2023-02-15T00:22:51.536Z,35.78
2023-02-15T00:25:21.950Z,38.67
2023-02-15T00:27:52.206Z,35.92
2023-02-15T00:30:24.048Z,34.42
2023-02-15T00:32:54.381Z,39.97
2023-02-15T00:35:24.854Z,40.55
2023-02-15T00:38:02.150Z,42.97
2023-02-15T00:40:35.004Z,44.80
2023-02-15T00:43:05.385Z,41.70
2023-02-15T00:45:36.670Z,41.05
2023-02-15T00:48:07.952Z,34.45
2023-02-15T00:50:38.609Z,45.40
2023-02-15T00:53:11.261Z,44.47
2023-02-15T00:55:42.584Z,37.03
2023-02-15T00:58:13.935Z,42.10
2023-02-15T01:00:45.896Z,38.78
2023-02-15T01:03:17.384Z,41.50
2023-02-15T01:05:50.386Z,36.00
2023-02-15T01:08:22.653Z,44.35
2023-02-15T01:10:52.808Z,36.58
2023-02-15T01:13:24.153Z,41.97
2023-02-15T01:15:58.510Z,40.17
2023-02-15T01:18:30.127Z,41.42
2023-02-15T01:21:03.208Z,39.28
2023-02-15T01:23:36.932Z,39.75
2023-02-15T01:26:07.672Z,40.17
2023-02-15T01:28:38.656Z,35.88
2023-02-15T01:31:12.097Z,39.63
2023-02-15T01:33:44.172Z,49.05
2023-02-15T01:36:14.671Z,41.10
2023-02-15T01:38:47.221Z,42.22
2023-02-15T01:41:24.597Z,41.97
2023-02-15T01:43:57.119Z,37.67
2023-02-15T01:46:34.681Z,42.10
2023-02-15T01:49:12.766Z,42.65
2023-02-15T01:51:46.363Z,39.85
2023-02-15T01:54:27.404Z,45.88
2023-02-15T01:57:01.661Z,49.55
2023-02-15T01:59:37.494Z,45.17
2023-02-15T02:02:11.237Z,46.70
2023-02-15T02:04:47.251Z,52.33
2023-02-15T02:07:20.494Z,46.13
2023-02-15T02:09:52.520Z,42.75
2023-02-15T02:12:28.039Z,45.67
2023-02-15T02:15:00.371Z,45.88
2023-02-15T02:18:06.290Z,43.80
2023-02-15T02:21:02.952Z,43.95
2023-02-15T02:23:48.251Z,42.22
2023-02-15T02:27:03.179Z,51.88
2023-02-15T02:30:22.856Z,50.95
2023-02-15T02:33:16.585Z,41.35
2023-02-15T02:35:59.274Z,43.50
2023-02-15T02:38:42.914Z,46.15
2023-02-15T02:41:20.592Z,43.92
2023-02-15T02:43:55.780Z,38.17
2023-02-15T02:46:54.016Z,47.67
2023-02-15T02:49:39.613Z,44.85
2023-02-15T02:52:30.571Z,50.40
2023-02-15T02:55:04.063Z,42.28
2023-02-15T02:57:35.803Z,38.83
2023-02-15T03:00:10.655Z,53.28
2023-02-15T03:02:46.503Z,44.45
2023-02-15T03:05:23.126Z,44.20
2023-02-15T03:07:55.498Z,49.75
2023-02-15T03:10:28.923Z,51.20
2023-02-15T03:13:00.334Z,50.05
2023-02-15T03:15:49.998Z,48.63
2023-02-15T03:18:23.130Z,56.15
2023-02-15T03:20:54.928Z,40.70
2023-02-15T03:23:28.339Z,46.53
2023-02-15T03:26:03.509Z,52.35
2023-02-15T03:28:41.614Z,59.75
2023-02-15T03:31:15.537Z,60.63
2023-02-15T03:33:59.369Z,46.45
2023-02-15T03:36:34.262Z,63.72
2023-02-15T03:39:15.027Z,58.20
2023-02-15T03:41:59.035Z,57.92
2023-02-15T03:44:32.990Z,49.92
2023-02-15T03:47:09.299Z,56.92
2023-02-15T03:49:47.234Z,58.92
2023-02-15T03:52:19.437Z,61.33
2023-02-15T03:54:50.169Z,68.97
2023-02-15T03:57:43.140Z,61.15
2023-02-15T04:00:34.428Z,61.00
2023-02-15T04:03:25.057Z,62.65
2023-02-15T04:05:56.682Z,63.47
2023-02-15T04:08:47.192Z,66.82
2023-02-15T04:11:16.404Z,71.45
2023-02-15T04:13:48.272Z,58.50
2023-02-15T04:16:16.970Z,59.78
2023-02-15T04:19:05.521Z,55.83
2023-02-15T04:21:54.240Z,63.78
2023-02-15T04:24:42.798Z,70.82
2023-02-15T04:27:21.528Z,70.07
2023-02-15T04:29:53.570Z,67.75
2023-02-15T04:32:23.738Z,68.78
2023-02-15T04:34:55.047Z,85.10
2023-02-15T04:37:25.386Z,65.05
2023-02-15T04:39:55.393Z,74.70
2023-02-15T04:42:25.740Z,72.53
2023-02-15T04:44:58.269Z,62.60
2023-02-15T04:47:28.610Z,74.07
2023-02-15T04:49:59.650Z,74.82
2023-02-15T04:52:32.039Z,66.47
2023-02-15T04:55:02.522Z,63.47
2023-02-15T04:57:32.313Z,70.43
2023-02-15T05:00:04.535Z,62.70
2023-02-15T05:02:34.966Z,65.53
2023-02-15T05:05:04.938Z,70.03
2023-02-15T05:07:35.846Z,74.00
2023-02-15T05:10:06.802Z,61.38
2023-02-15T05:12:39.782Z,63.63
2023-02-15T05:15:14.488Z,68.28
2023-02-15T05:17:46.079Z,80.05
2023-02-15T05:20:17.014Z,70.72
2023-02-15T05:22:49.773Z,69.43
2023-02-15T05:25:38.922Z,60.30
2023-02-15T05:28:24.944Z,69.07
2023-02-15T05:31:07.608Z,62.25
2023-02-15T05:33:38.345Z,70.85
2023-02-15T05:36:11.553Z,69.25
2023-02-15T05:38:42.726Z,59.63
2023-02-15T05:41:14.497Z,78.00
2023-02-15T05:43:46.122Z,65.13
2023-02-15T05:46:19.293Z,61.65
2023-02-15T05:48:50.007Z,61.33
2023-02-15T05:51:23.209Z,61.72
2023-02-15T05:53:53.585Z,57.00
2023-02-15T05:56:25.474Z,72.63
2023-02-15T05:58:56.878Z,74.40
2023-02-15T06:01:31.096Z,74.38
2023-02-15T06:04:02.075Z,80.10
2023-02-15T06:06:35.828Z,75.40
2023-02-15T06:09:07.426Z,59.90
2023-02-15T06:11:38.002Z,72.60
2023-02-15T06:14:08.462Z,66.43
2023-02-15T06:16:52.947Z,57.85
2023-02-15T06:19:24.273Z,68.38
2023-02-15T06:21:55.049Z,66.85
2023-02-15T06:24:25.466Z,78.35
2023-02-15T06:26:55.668Z,69.13
2023-02-15T06:29:26.155Z,70.93
2023-02-15T06:31:58.381Z,94.10
2023-02-15T06:34:28.686Z,92.38
2023-02-15T06:36:59.397Z,67.68
2023-02-15T06:39:30.486Z,74.70
2023-02-15T06:42:02.386Z,79.90
2023-02-15T06:44:33.057Z,73.40
2023-02-15T06:47:05.718Z,89.20
2023-02-15T06:49:36.788Z,81.68
2023-02-15T06:52:07.313Z,79.07
2023-02-15T06:54:44.991Z,84.63
2023-02-15T06:57:15.765Z,81.25
2023-02-15T06:59:46.176Z,69.28
2023-02-15T07:02:21.628Z,83.57
2023-02-15T07:04:52.134Z,89.00
2023-02-15T07:07:23.514Z,94.55
2023-02-15T07:09:53.795Z,80.70
2023-02-15T07:12:41.304Z,84.38
2023-02-15T07:15:14.778Z,85.72
2023-02-15T07:17:48.894Z,86.43
2023-02-15T07:20:23.587Z,84.07
2023-02-15T07:22:54.868Z,74.38
2023-02-15T07:25:26.581Z,83.80
2023-02-15T07:28:00.052Z,86.10
2023-02-15T07:30:31.491Z,92.10
2023-02-15T07:33:22.738Z,82.65
2023-02-15T07:35:54.527Z,87.30
2023-02-15T07:38:27.474Z,97.82
2023-02-15T07:41:03.745Z,82.40
2023-02-15T07:43:37.964Z,84.90
2023-02-15T07:46:13.859Z,85.47
2023-02-15T07:48:48.186Z,88.05
2023-02-15T07:51:20.648Z,92.25
2023-02-15T07:53:57.658Z,77.10
2023-02-15T07:56:28.524Z,83.22
2023-02-15T07:59:07.425Z,90.55
2023-02-15T08:01:41.608Z,92.60
2023-02-15T08:04:14.672Z,87.63
2023-02-15T08:06:46.724Z,94.90
2023-02-15T08:09:19.329Z,84.38
2023-02-15T08:11:51.138Z,89.28
2023-02-15T08:14:23.889Z,88.03
2023-02-15T08:16:57.971Z,84.60
2023-02-15T08:19:32.964Z,80.57
2023-02-15T08:22:05.584Z,69.88
2023-02-15T08:24:38.461Z,95.32
2023-02-15T08:27:09.758Z,82.05
2023-02-15T08:29:43.990Z,71.28
2023-02-15T08:32:15.401Z,70.13
2023-02-15T08:34:47.614Z,56.42
2023-02-15T08:37:17.886Z,65.55
2023-02-15T08:39:49.136Z,63.65
2023-02-15T08:42:22.312Z,68.40
2023-02-15T08:44:54.603Z,56.90
2023-02-15T08:47:28.823Z,70.13
2023-02-15T08:50:02.146Z,66.15
2023-02-15T08:52:39.296Z,60.70
2023-02-15T08:55:27.224Z,60.50
2023-02-15T08:58:07.515Z,57.28
2023-02-15T09:00:46.536Z,58.33
2023-02-15T09:03:28.737Z,59.58
2023-02-15T09:06:25.233Z,67.80
2023-02-15T09:09:03.884Z,59.30
2023-02-15T09:11:40.236Z,55.88
2023-02-15T09:14:14.639Z,56.20
2023-02-15T09:16:47.598Z,45.75
2023-02-15T09:19:19.203Z,53.20
2023-02-15T09:21:50.681Z,48.10
2023-02-15T09:24:20.795Z,42.92
2023-02-15T09:26:51.004Z,55.67
2023-02-15T09:29:21.576Z,46.75
2023-02-15T09:31:58.372Z,41.92
2023-02-15T09:34:36.886Z,44.88
2023-02-15T09:42:23.864Z,40.03
2023-02-15T09:45:28.068Z,44.33
2023-02-15T09:48:33.521Z,44.10
2023-02-15T09:55:39.314Z,40.20
2023-02-15T09:58:20.255Z,35.63
2023-02-15T10:00:57.385Z,37.65
2023-02-15T10:03:45.202Z,42.67
2023-02-15T10:06:26.956Z,45.42
2023-02-15T10:09:12.595Z,40.33
2023-02-15T10:11:59.456Z,37.95
2023-02-15T10:14:51.798Z,44.15
2023-02-15T10:17:34.192Z,40.00
2023-02-15T10:20:13.908Z,48.25
2023-02-15T10:22:57.629Z,45.70
2023-02-15T10:25:35.727Z,40.80
2023-02-15T10:28:09.296Z,38.20
2023-02-15T10:30:47.396Z,40.88
2023-02-15T10:33:32.680Z,39.70
2023-02-15T10:36:14.061Z,44.90
2023-02-15T10:38:46.197Z,42.63
2023-02-15T10:41:35.579Z,44.58
2023-02-15T10:44:26.570Z,43.33
2023-02-15T10:47:25.280Z,40.20
2023-02-15T10:50:09.985Z,37.33
2023-02-15T10:53:28.802Z,42.55
2023-02-15T10:56:06.976Z,35.35
2023-02-15T10:58:51.480Z,40.10
2023-02-15T11:01:30.558Z,40.88
2023-02-15T11:04:32.996Z,42.42
2023-02-15T11:07:06.086Z,45.83
2023-02-15T11:09:41.307Z,36.47
2023-02-15T11:12:16.966Z,42.97
2023-02-15T11:14:51.791Z,46.33
2023-02-15T11:17:28.406Z,34.20
2023-02-15T11:20:05.609Z,39.38
2023-02-15T11:22:36.045Z,35.10
2023-02-15T11:25:17.310Z,35.20
2023-02-15T11:27:48.913Z,34.03
2023-02-15T11:30:21.558Z,37.28
2023-02-15T11:32:59.302Z,33.33
2023-02-15T11:35:34.413Z,46.35
2023-02-15T11:38:09.651Z,37.97
2023-02-15T11:40:43.689Z,33.28
2023-02-15T11:43:20.117Z,34.85
2023-02-15T11:45:49.482Z,42.85
2023-02-15T11:48:20.095Z,36.35
2023-02-15T11:50:49.547Z,40.47
2023-02-15T11:53:22.273Z,37.83
2023-02-15T11:55:53.054Z,32.50
2023-02-15T11:58:32.559Z,38.97
2023-02-15T12:01:06.670Z,38.85
2023-02-15T12:03:49.339Z,33.85
2023-02-15T12:06:29.742Z,38.22
2023-02-15T12:09:07.338Z,37.70
2023-02-15T12:11:38.942Z,39.67
2023-02-15T12:14:10.198Z,40.08
2023-02-15T12:16:45.329Z,40.40
2023-02-15T12:19:31.148Z,37.00
2023-02-15T12:22:01.591Z,44.55
2023-02-15T12:24:33.096Z,38.35
2023-02-15T12:27:05.956Z,37.53
2023-02-15T12:29:42.783Z,42.60
2023-02-15T12:32:20.442Z,32.47
2023-02-15T12:34:52.585Z,33.42
2023-02-15T12:37:26.331Z,29.00
2023-02-15T12:39:57.948Z,34.67
2023-02-15T12:42:30.228Z,38.40
2023-02-15T12:45:02.474Z,35.05
2023-02-15T12:47:33.609Z,38.13
2023-02-15T12:50:19.582Z,34.88
2023-02-15T12:52:51.889Z,32.05
2023-02-15T12:55:25.523Z,33.80
2023-02-15T12:58:09.448Z,30.20
2023-02-15T13:00:38.826Z,33.77
2023-02-15T13:03:18.267Z,31.23
2023-02-15T13:05:53.065Z,30.77
2023-02-15T13:08:24.467Z,31.97
2023-02-15T13:10:59.173Z,33.53
2023-02-15T13:13:31.636Z,30.07
2023-02-15T13:16:04.481Z,36.43
2023-02-15T13:18:37.953Z,32.30
2023-02-15T13:21:14.242Z,30.27
2023-02-15T13:23:49.474Z,29.73
2023-02-15T13:26:22.257Z,32.07
2023-02-15T13:28:55.504Z,32.60
2023-02-15T13:31:28.950Z,26.17
2023-02-15T13:34:03.074Z,33.07
2023-02-15T13:36:42.523Z,32.23
2023-02-15T13:39:23.584Z,28.87
2023-02-15T13:42:00.752Z,28.10
2023-02-15T13:44:55.598Z,29.13
2023-02-15T13:47:29.350Z,28.40
2023-02-15T13:50:19.003Z,27.50
2023-02-15T13:52:59.188Z,37.93
2023-02-15T13:55:42.589Z,26.50
2023-02-15T13:58:41.420Z,32.30
2023-02-15T14:01:13.473Z,30.43
2023-02-15T14:04:12.959Z,33.33
2023-02-15T14:07:01.737Z,37.67
2023-02-15T14:09:46.898Z,30.60
2023-02-15T14:12:36.584Z,24.40
2023-02-15T14:15:20.415Z,33.43
2023-02-15T14:18:00.118Z,24.47
2023-02-15T14:20:43.253Z,25.20
2023-02-15T14:23:30.678Z,24.83
2023-02-15T14:26:06.800Z,28.57
2023-02-15T14:28:45.849Z,23.77
2023-02-15T14:31:17.723Z,26.20
2023-02-15T14:33:56.981Z,37.83
2023-02-15T14:36:27.656Z,30.33
2023-02-15T14:39:29.233Z,36.10
2023-02-15T14:42:03.482Z,31.17
2023-02-15T14:44:38.914Z,27.03
2023-02-15T14:47:12.479Z,26.37
2023-02-15T14:49:42.756Z,28.90
2023-02-15T14:52:13.073Z,25.43
2023-02-15T14:55:01.375Z,29.80
2023-02-15T14:57:36.453Z,25.63
2023-02-15T15:00:33.369Z,27.77
2023-02-15T15:03:03.569Z,27.57
2023-02-15T15:05:37.013Z,24.67
2023-02-15T15:08:07.722Z,25.97
2023-02-15T15:10:43.710Z,27.80
2023-02-15T15:13:40.099Z,27.23
2023-02-15T15:16:45.756Z,26.50
2023-02-15T15:19:50.724Z,29.17
2023-02-15T15:22:23.018Z,28.63
2023-02-15T15:24:56.794Z,30.43
2023-02-15T15:27:47.202Z,26.20
2023-02-15T15:31:04.489Z,27.27
2023-02-15T15:34:25.329Z,30.07
2023-02-15T15:37:33.998Z,24.30
2023-02-15T15:40:57.573Z,33.57
2023-02-15T15:44:22.239Z,28.37
2023-02-15T15:47:12.980Z,29.67
2023-02-15T15:49:42.613Z,29.98
2023-02-15T15:52:17.412Z,28.10
2023-02-15T15:54:48.996Z,24.90
2023-02-15T15:57:26.846Z,24.70
2023-02-15T16:00:00.077Z,27.17
2023-02-15T16:02:30.156Z,31.35
2023-02-15T16:05:09.981Z,32.40
2023-02-15T16:07:43.209Z,31.67
2023-02-15T16:10:24.964Z,35.95
2023-02-15T16:12:55.681Z,36.38
2023-02-15T16:15:27.620Z,27.38
2023-02-15T16:17:59.690Z,27.80
2023-02-15T16:20:31.676Z,33.78
2023-02-15T16:23:23.614Z,36.13
2023-02-15T16:26:04.029Z,36.00
2023-02-15T16:28:33.607Z,32.75
2023-02-15T16:31:13.396Z,30.73
2023-02-15T16:33:45.878Z,34.10
2023-02-15T16:36:24.895Z,32.50
2023-02-15T16:39:10.026Z,37.72
2023-02-15T16:41:40.046Z,27.45
2023-02-15T16:44:16.653Z,29.95
2023-02-15T16:46:50.695Z,37.92
2023-02-15T16:49:24.583Z,44.83
2023-02-15T16:51:59.753Z,29.95
2023-02-15T16:54:32.347Z,36.45
2023-02-15T16:57:01.768Z,31.77
2023-02-15T16:59:36.677Z,31.52
2023-02-15T17:02:37.289Z,39.58
2023-02-15T17:05:18.861Z,36.83
2023-02-15T17:08:18.579Z,30.85
2023-02-15T17:11:05.446Z,39.65
2023-02-15T17:13:35.532Z,33.50
2023-02-15T17:16:31.961Z,29.35
2023-02-15T17:19:06.483Z,35.05
2023-02-15T17:21:40.386Z,34.13
2023-02-15T17:24:18.366Z,35.58
2023-02-15T17:26:55.406Z,34.22
2023-02-15T17:29:40.286Z,37.53
2023-02-15T17:32:20.405Z,36.80
2023-02-15T17:35:04.691Z,42.00
2023-02-15T17:37:46.547Z,42.33
2023-02-15T17:40:26.201Z,42.15
2023-02-15T17:42:59.397Z,39.30
2023-02-15T17:45:34.949Z,47.67
2023-02-15T17:48:08.877Z,45.22
2023-02-15T17:50:42.957Z,42.72
2023-02-15T17:53:14.442Z,43.95
2023-02-15T17:55:45.034Z,40.22
2023-02-15T17:58:19.908Z,40.92
2023-02-15T18:01:10.954Z,44.28
2023-02-15T18:04:04.727Z,45.25
2023-02-15T18:06:55.007Z,49.42
2023-02-15T18:09:44.265Z,42.20
2023-02-15T18:12:23.593Z,54.53
2023-02-15T18:14:55.186Z,41.63
2023-02-15T18:17:31.429Z,56.58
2023-02-15T18:20:06.053Z,46.83
2023-02-15T18:22:38.714Z,43.25
2023-02-15T18:25:14.305Z,44.70
2023-02-15T18:27:45.059Z,48.88
2023-02-15T18:30:20.769Z,46.50
2023-02-15T18:32:53.313Z,43.42
2023-02-15T18:35:28.704Z,49.15
2023-02-15T18:38:02.637Z,48.08
2023-02-15T18:40:34.334Z,49.35
2023-02-15T18:43:04.658Z,241.10
2023-02-15T18:45:36.886Z,66.22
2023-02-15T18:48:08.688Z,56.90
2023-02-15T18:50:40.319Z,54.60
2023-02-15T18:53:19.943Z,44.38
2023-02-15T18:55:52.061Z,60.00
2023-02-15T18:58:26.684Z,50.25
2023-02-15T19:00:59.172Z,47.92
2023-02-15T19:03:32.211Z,52.75
2023-02-15T19:06:07.803Z,55.42
2023-02-15T19:08:42.220Z,52.30
2023-02-15T19:11:20.313Z,50.65
2023-02-15T19:13:53.542Z,51.95
2023-02-15T19:16:32.215Z,56.45
2023-02-15T19:19:04.500Z,54.85
2023-02-15T19:21:36.907Z,52.75
2023-02-15T19:24:16.039Z,47.97
2023-02-15T19:26:47.878Z,63.22
2023-02-15T19:29:26.783Z,44.25
2023-02-15T19:31:58.531Z,47.83
2023-02-15T19:34:30.765Z,48.35
2023-02-15T19:37:03.598Z,49.97
2023-02-15T19:39:43.041Z,51.03
2023-02-15T19:42:17.855Z,55.78
2023-02-15T19:44:50.505Z,52.72
2023-02-15T19:47:22.696Z,53.60
2023-02-15T19:49:53.406Z,53.33
2023-02-15T19:52:26.077Z,49.05
2023-02-15T19:55:00.488Z,41.05
2023-02-15T19:57:32.912Z,51.78
2023-02-15T20:00:20.893Z,54.35
2023-02-15T20:02:52.371Z,47.70
2023-02-15T20:05:26.246Z,63.63
2023-02-15T20:08:01.223Z,52.15
2023-02-15T20:10:34.377Z,58.70
2023-02-15T20:13:06.566Z,58.78
2023-02-15T20:15:40.317Z,93.38
2023-02-15T20:18:11.986Z,57.55
2023-02-15T20:20:45.643Z,56.53
2023-02-15T20:23:25.150Z,57.78
2023-02-15T20:26:02.127Z,58.55
2023-02-15T20:28:33.817Z,52.35
2023-02-15T20:31:14.586Z,62.55
2023-02-15T20:33:46.050Z,56.83
2023-02-15T20:36:22.190Z,56.08
2023-02-15T20:38:55.396Z,64.65
2023-02-15T20:41:48.472Z,50.78
2023-02-15T20:44:25.407Z,58.00
2023-02-15T20:46:59.558Z,53.30
2023-02-15T20:49:31.236Z,60.53
2023-02-15T20:52:09.584Z,66.00
2023-02-15T20:54:40.857Z,73.30
2023-02-15T20:57:15.144Z,65.32
2023-02-15T20:59:46.435Z,59.72
2023-02-15T21:02:22.606Z,68.53
2023-02-15T21:04:55.366Z,59.28
2023-02-15T21:07:34.184Z,76.05
2023-02-15T21:10:08.150Z,70.70
2023-02-15T21:12:43.736Z,66.20
2023-02-15T21:15:32.118Z,68.97
2023-02-15T21:18:06.724Z,58.03
2023-02-15T21:20:53.251Z,62.35
2023-02-15T21:23:28.536Z,60.15
2023-02-15T21:26:25.041Z,58.75
2023-02-15T21:28:59.875Z,48.35
2023-02-15T21:31:31.937Z,53.63
2023-02-15T21:34:06.212Z,61.55
2023-02-15T21:36:39.212Z,60.72
2023-02-15T21:39:17.131Z,66.70
2023-02-15T21:42:06.999Z,76.72
2023-02-15T21:44:57.450Z,57.65
2023-02-15T21:47:47.582Z,64.00
2023-02-15T21:50:40.868Z,68.72
2023-02-15T21:53:15.468Z,64.20
2023-02-15T21:55:49.898Z,68.25
2023-02-15T21:58:24.501Z,57.85
2023-02-15T22:00:59.330Z,85.53
2023-02-15T22:03:35.251Z,59.83
2023-02-15T22:06:16.432Z,54.00
2023-02-15T22:09:18.158Z,75.88
2023-02-15T22:11:51.421Z,70.65
2023-02-15T22:14:40.720Z,57.65
2023-02-15T22:17:20.101Z,66.00
2023-02-15T22:19:55.054Z,70.40
2023-02-15T22:22:28.518Z,69.20
2023-02-15T22:24:59.563Z,68.57
2023-02-15T22:27:42.971Z,61.83
2023-02-15T22:30:30.642Z,62.63
2023-02-15T22:33:11.096Z,72.30
2023-02-15T22:35:44.820Z,63.97
2023-02-15T22:38:18.269Z,65.05
2023-02-15T22:40:52.185Z,62.03
2023-02-15T22:43:40.653Z,66.85
2023-02-15T22:46:19.145Z,60.17
2023-02-15T22:48:53.091Z,69.75
2023-02-15T22:51:27.649Z,66.93
2023-02-15T22:54:01.290Z,65.47
2023-02-15T22:56:44.740Z,56.42
2023-02-15T22:59:22.942Z,62.67
2023-02-15T23:01:55.903Z,69.88
2023-02-15T23:04:33.233Z,57.15
2023-02-15T23:07:03.724Z,58.00
2023-02-15T23:09:35.353Z,61.53
2023-02-15T23:12:08.855Z,55.50
2023-02-15T23:14:45.760Z,52.40
2023-02-15T23:17:16.495Z,59.00
2023-02-15T23:19:51.884Z,54.25
2023-02-15T23:22:24.024Z,56.05
2023-02-15T23:24:56.031Z,56.85
2023-02-15T23:27:44.914Z,54.13
2023-02-15T23:30:20.089Z,55.55
2023-02-15T23:32:52.269Z,53.97
2023-02-15T23:35:26.209Z,57.15
2023-02-15T23:37:56.513Z,51.17
2023-02-15T23:40:45.309Z,55.38
2023-02-15T23:43:24.707Z,59.88
2023-02-15T23:45:55.467Z,51.63
2023-02-15T23:48:32.039Z,57.58
2023-02-15T23:51:13.310Z,49.83
2023-02-15T23:53:44.968Z,50.38
2023-02-15T23:56:17.013Z,54.17
2023-02-15T23:58:49.349Z,54.30
